Main page
METAR-TAF:

METAR-TAF

Airports :

Athens International Airport

Athens, Greece

latitude: 37-56N, longitude: 023-56E, elevation: 94 m

Current weather observation

The report was made 23 minutes ago, at 01:20 UTC
Calm wind
Temperature 25°C
Humidity 47%
Pressure 1010 hPa
Visibility 10 km or more
no clouds below 1500 m and no cumulonimbus

METAR: LGAV 170120Z 00000KT CAVOK 25/13 Q1010 NOSIG

Time: 04:43 (01:43 UTC)

Forecast

The report was made 2 hours and 43 minutes ago, at 23:00 UTC
Forecast valid from 17 at 00 UTC to 17 at 24 UTC
Wind 5 kt from variable directions
Visibility 10 km or more
Few clouds at a height of 3000 ft
Becoming
from 17 at 07 UTC to 17 at 09 UTC
Wind 10 kt from the East/Northeast
Temporary
from 17 at 12 UTC to 17 at 15 UTC
Scattered clouds at a height of 3000 ft

TAF: LGAV 162300Z 1700/1724 VRB05KT 9999 FEW030 BECMG 1707/1709 07010KT TEMPO 1712/1715 SCT030

Weather observations and forecasts of more than 4000 airports (METAR and TAF reports).

The available stations are represented by yellow and red dots on the map.

Hover mouse over dot to see the name of the station.

Then click to see weather observations and forecasts.

To change the map : click on the green buttons with a black cross to zoom in, on the green button with a dash to zoom out, or on the green arrows for adjacent maps.


METAR-TAF: